CFG4JK EDDF-LOWW
Flight info
| Callsign | CFG4JK |
|---|---|
| Flight time | N/A |
| Altitude | 35000 |
| Route | SULUS4D/07C SULUS Z650 VEMUT DCT BUDEX BUDEX2W |
| Aircraft | A321/M-SDE3FGHIRWY/LB1 |
Departure
| Time | 2026-05-01 15:11 |
|---|---|
| Airport | Frankfurt Main Airport (EDDF) |
Arrival
| Time | N/A |
|---|---|
| Airport | Vienna International Airport (LOWW) |
| Time | Latitude | Longitude | Altitude | Speed | Heading |
|---|---|---|---|---|---|
| 2026-05-01 14:33 | 50.04097 | 8.55754 | 354 ft | 0 kts | 159° |
| 2026-05-01 14:59 | 50.04103 | 8.55750 | 355 ft | 10 kts | 165° |
| 2026-05-01 14:59 | 50.04110 | 8.55747 | 355 ft | 1 kts | 160° |
| 2026-05-01 15:03 | 50.04105 | 8.55749 | 354 ft | 4 kts | 160° |
| 2026-05-01 15:04 | 50.04057 | 8.55776 | 353 ft | 9 kts | 161° |
| 2026-05-01 15:04 | 50.04002 | 8.55746 | 357 ft | 10 kts | 238° |
| 2026-05-01 15:04 | 50.03970 | 8.55617 | 355 ft | 17 kts | 250° |
| 2026-05-01 15:04 | 50.03924 | 8.55424 | 355 ft | 20 kts | 251° |
| 2026-05-01 15:05 | 50.03873 | 8.55211 | 358 ft | 22 kts | 250° |
| 2026-05-01 15:05 | 50.03818 | 8.54980 | 355 ft | 24 kts | 249° |
| 2026-05-01 15:05 | 50.03758 | 8.54733 | 354 ft | 23 kts | 249° |
| 2026-05-01 15:05 | 50.03719 | 8.54569 | 354 ft | 8 kts | 249° |
| 2026-05-01 15:06 | 50.03713 | 8.54541 | 353 ft | 0 kts | 250° |
| 2026-05-01 15:06 | 50.03708 | 8.54524 | 349 ft | 3 kts | 249° |
| 2026-05-01 15:06 | 50.03700 | 8.54489 | 353 ft | 4 kts | 249° |
| 2026-05-01 15:07 | 50.03686 | 8.54430 | 358 ft | 8 kts | 249° |
| 2026-05-01 15:07 | 50.03663 | 8.54342 | 356 ft | 9 kts | 239° |
| 2026-05-01 15:07 | 50.03616 | 8.54312 | 349 ft | 8 kts | 180° |
| 2026-05-01 15:07 | 50.03566 | 8.54336 | 356 ft | 8 kts | 160° |
| 2026-05-01 15:08 | 50.03505 | 8.54369 | 351 ft | 11 kts | 160° |
| 2026-05-01 15:08 | 50.03495 | 8.54436 | 351 ft | 0 kts | 70° |
| 2026-05-01 15:10 | 50.03540 | 8.54628 | 353 ft | 54 kts | 70° |
| 2026-05-01 15:10 | 50.03766 | 8.55570 | 359 ft | 127 kts | 69° |
| 2026-05-01 15:11 | 50.04136 | 8.57122 | 371 ft | 177 kts | 70° |
| 2026-05-01 15:11 | 50.05043 | 8.61031 | 1538 ft | 199 kts | 71° |
| 2026-05-01 15:11 | 50.05511 | 8.63020 | 2355 ft | 190 kts | 72° |
| 2026-05-01 15:12 | 50.05946 | 8.64906 | 2955 ft | 186 kts | 74° |
| 2026-05-01 15:12 | 50.06864 | 8.69134 | 3411 ft | 222 kts | 75° |
| 2026-05-01 15:12 | 50.07126 | 8.71494 | 3938 ft | 223 kts | 90° |
| 2026-05-01 15:13 | 50.06317 | 8.79389 | 5301 ft | 261 kts | 103° |
| 2026-05-01 15:14 | 50.05754 | 8.85071 | 6730 ft | 272 kts | 92° |
| 2026-05-01 15:14 | 50.05800 | 8.88039 | 7389 ft | 275 kts | 91° |
| 2026-05-01 15:14 | 50.05915 | 8.94037 | 8797 ft | 280 kts | 91° |
| 2026-05-01 15:15 | 50.06017 | 9.00144 | 10162 ft | 284 kts | 91° |
| 2026-05-01 15:15 | 50.06115 | 9.06615 | 10646 ft | 319 kts | 91° |
| 2026-05-01 15:16 | 50.06224 | 9.13733 | 11473 ft | 335 kts | 90° |
| 2026-05-01 15:16 | 50.06338 | 9.21035 | 12662 ft | 340 kts | 90° |
| 2026-05-01 15:17 | 50.06789 | 9.28411 | 13878 ft | 348 kts | 76° |
| 2026-05-01 15:18 | 50.10039 | 9.38683 | 15460 ft | 357 kts | 63° |
| 2026-05-01 15:18 | 50.11225 | 9.42094 | 15979 ft | 360 kts | 63° |
| 2026-05-01 15:19 | 50.14822 | 9.52490 | 17492 ft | 367 kts | 63° |
| 2026-05-01 15:19 | 50.17252 | 9.59561 | 18440 ft | 372 kts | 63° |
| 2026-05-01 15:19 | 50.18473 | 9.63126 | 18866 ft | 374 kts | 64° |
| 2026-05-01 15:20 | 50.19944 | 9.70865 | 19660 ft | 375 kts | 85° |
| 2026-05-01 15:20 | 50.20002 | 9.74933 | 20067 ft | 376 kts | 91° |
| 2026-05-01 15:20 | 50.19990 | 9.79022 | 20454 ft | 378 kts | 91° |
| 2026-05-01 15:21 | 50.19983 | 9.83132 | 20818 ft | 380 kts | 90° |
| 2026-05-01 15:21 | 50.19977 | 9.87263 | 21172 ft | 382 kts | 90° |
| 2026-05-01 15:21 | 50.19973 | 9.91413 | 21525 ft | 384 kts | 90° |
| 2026-05-01 15:21 | 50.19892 | 9.95585 | 21874 ft | 386 kts | 96° |
| 2026-05-01 15:22 | 50.18269 | 10.03557 | 22549 ft | 391 kts | 118° |
| 2026-05-01 15:22 | 50.16715 | 10.07053 | 22865 ft | 394 kts | 129° |
| 2026-05-01 15:22 | 50.14935 | 10.10324 | 23198 ft | 397 kts | 129° |
| 2026-05-01 15:23 | 50.13142 | 10.13616 | 23538 ft | 399 kts | 129° |
| 2026-05-01 15:23 | 50.11342 | 10.16916 | 23886 ft | 401 kts | 129° |
| 2026-05-01 15:23 | 50.09655 | 10.20379 | 24161 ft | 402 kts | 120° |
| 2026-05-01 15:23 | 50.08397 | 10.24269 | 24434 ft | 403 kts | 110° |
| 2026-05-01 15:24 | 50.07626 | 10.28454 | 24712 ft | 404 kts | 99° |
| 2026-05-01 15:24 | 50.07370 | 10.32802 | 24996 ft | 405 kts | 89° |
| 2026-05-01 15:24 | 50.07401 | 10.37193 | 25275 ft | 407 kts | 89° |
| 2026-05-01 15:24 | 50.07429 | 10.41548 | 25575 ft | 409 kts | 89° |
| 2026-05-01 15:25 | 50.07449 | 10.45980 | 25866 ft | 410 kts | 89° |
| 2026-05-01 15:25 | 50.07463 | 10.50437 | 26159 ft | 412 kts | 89° |
| 2026-05-01 15:25 | 50.07474 | 10.54908 | 26445 ft | 414 kts | 89° |
| 2026-05-01 15:25 | 50.07483 | 10.59404 | 26734 ft | 416 kts | 89° |
| 2026-05-01 15:26 | 50.07491 | 10.63920 | 27009 ft | 418 kts | 89° |
| 2026-05-01 15:26 | 50.07498 | 10.66986 | 27198 ft | 420 kts | 89° |
| 2026-05-01 15:26 | 50.07399 | 10.71533 | 27470 ft | 422 kts | 95° |
| 2026-05-01 15:26 | 50.06844 | 10.76028 | 27729 ft | 425 kts | 105° |
| 2026-05-01 15:27 | 50.05929 | 10.80418 | 27990 ft | 428 kts | 107° |
| 2026-05-01 15:27 | 50.04992 | 10.84819 | 28251 ft | 430 kts | 107° |
| 2026-05-01 15:27 | 50.04055 | 10.89246 | 28512 ft | 432 kts | 107° |
| 2026-05-01 15:28 | 50.02174 | 10.98161 | 29022 ft | 435 kts | 107° |
| 2026-05-01 15:28 | 50.01238 | 11.02578 | 29271 ft | 437 kts | 107° |
| 2026-05-01 15:28 | 50.00284 | 11.07075 | 29525 ft | 439 kts | 107° |
| 2026-05-01 15:29 | 49.98355 | 11.16115 | 30013 ft | 442 kts | 107° |
| 2026-05-01 15:29 | 49.97379 | 11.20660 | 30244 ft | 444 kts | 107° |
| 2026-05-01 15:29 | 49.95428 | 11.29800 | 30628 ft | 447 kts | 107° |
| 2026-05-01 15:30 | 49.93475 | 11.39002 | 30986 ft | 450 kts | 107° |
| 2026-05-01 15:31 | 49.89962 | 11.57557 | 31978 ft | 447 kts | 103° |
| 2026-05-01 15:31 | 49.88326 | 11.66853 | 32474 ft | 446 kts | 101° |
| 2026-05-01 15:32 | 49.87414 | 11.76330 | 32952 ft | 444 kts | 96° |
| 2026-05-01 15:32 | 49.86574 | 11.85815 | 33447 ft | 444 kts | 96° |
| 2026-05-01 15:33 | 49.85281 | 12.00012 | 34166 ft | 442 kts | 96° |
| 2026-05-01 15:34 | 49.84005 | 12.14146 | 34773 ft | 441 kts | 96° |